• Join FlightAware (Why Join?)
  • Login
  • US Flag 
01:12PM EDT


 

Airport Tracker/Info


-or-


 

Live Flight TrackerFlight Track Log ✈ AWE3287 ✈ 14-Jan-2014 ✈ KMHT - KPHL

Flight Track Log - Related Links

Times and Time Zones

All times are in EST time to prevent confusion due to time zone crossing. See the AWE3287 flight status page for this flight to view local times or setup timezone preferences in your user account.

Time Position Orientation Groundspeed Altitude Reporting Facility
EST Latitude Longitude Course Direction KTS MPH feet Rate Location/Type
12:13PM 42.9167 -71.4167 274° West 138 159 1,200  Level KA90
12:14PM 42.8953 -71.4325 208° Southwest 130 150 2,300 1,500 Climbing Boston Center
12:15PM 42.8692 -71.4808 234° Southwest 201 231 3,800 2,160 Climbing Boston Center
12:16PM 42.7484 -71.6802 270° West  Level Estimated
12:16PM 42.9178 -71.5458 316° Northwest 245 282 6,800  Level Boston Center
12:17PM 42.6869 -71.7614 270° West  Level Estimated
12:17PM 42.9694 -71.6236 312° West 258 297 10,000  Level Boston Center
12:18PM 42.7401 -71.8528 308° West  Level FlightAware Approximate
12:18PM 42.9711 -71.7186 271° West 258 297 11,700  Level Boston Center
12:19PM 42.6771 -71.9319 274° West  Level Estimated
12:19PM 42.9731 -71.8261 271° West 280 322 14,200  Level Boston Center
12:20PM 42.9756 -71.9394 272° West 299 344 16,800 2,340 Climbing Boston Center
12:21PM 42.9781 -72.0522 272° West 300 345 19,000 2,340 Climbing Boston Center
12:22PM 42.9789 -72.1714 271° West 313 360 21,600 2,520 Climbing Boston Center
12:23PM 42.9517 -72.2692 249° West 276 318 24,200 1,980 Climbing Boston Center
12:24PM 42.9228 -72.3808 251° West 283 326 25,700 840 Climbing Boston Center
12:25PM 42.8936 -72.4850 249° West 293 337 26,000 120 Climbing Boston Center
12:26PM 42.8653 -72.5872 249° West 290 334 26,000  Level Boston Center
12:27PM 42.8381 -72.6858 249° West 291 335 26,000  Level Boston Center
12:28PM 42.8097 -72.7883 249° West 291 335 26,000  Level Boston Center
12:29PM 42.7808 -72.8900 249° West 290 334 26,000  Level Boston Center
12:30PM 42.7492 -73.0050 249° West 292 336 26,000  Level Boston Center
12:31PM 42.7203 -73.1047 249° West 288 331 26,000  Level Boston Center
12:32PM 42.6919 -73.2058 249° West 289 333 26,000  Level Boston Center
12:33PM 42.6631 -73.3058 249° West 288 331 26,000  Level Boston Center
12:34PM 42.6347 -73.4072 249° West 289 333 26,000  Level Boston Center
12:35PM 42.6064 -73.5061 249° West 284 327 26,000  Level Boston Center
12:36PM 42.5781 -73.6069 249° West 287 330 26,000  Level Boston Center
12:37PM 42.5497 -73.7081 249° West 288 331 26,000  Level Boston Center
12:38PM 42.5206 -73.8069 248° West 284 327 26,000  Level Boston Center
12:39PM 42.4853 -73.9253 248° West 284 327 26,000  Level Boston Center
12:41PM 42.4575 -74.0231 249° West 280 322 26,000  Level Boston Center
12:42PM 42.4283 -74.1217 248° West 284 327 26,000  Level Boston Center
12:43PM 42.3975 -74.2225 248° West 288 331 26,000  Level Boston Center
12:44PM 42.3689 -74.3206 248° West 283 326 26,000  Level Boston Center
12:45PM 42.3406 -74.4192 249° West 283 326 26,000  Level Boston Center
12:46PM 42.3044 -74.5056 241° Southwest 278 320 26,100  Climbing Boston Center
12:47PM 42.2614 -74.5861 234° Southwest 267 307 26,000 -60 Descending Boston Center
12:48PM 42.2186 -74.6667 234° Southwest 265 305 26,000 -300 Level Boston Center
12:49PM 42.1653 -74.7631 233° Southwest 265 305 25,400 -960 Descending Boston Center
12:50PM 42.1256 -74.8389 235° Southwest 252 290 24,100 -1,260 Descending Boston Center
12:51PM 42.0839 -74.9136 233° Southwest 248 285 22,800 -1,440 Descending Boston Center
12:52PM 42.0417 -74.9933 235° Southwest 258 297 21,300 -1,440 Descending Boston Center
12:53PM 41.9986 -75.0719 234° Southwest 276 318 19,900 -1,200 Descending Boston Center
12:54PM 41.9483 -75.1508 229° Southwest 279 321 19,000 -480 Descending Boston Center
12:55PM 41.8789 -75.2028 209° Southwest 280 322 19,000  Level Boston Center
12:56PM 41.8133 -75.2567 211° Southwest 278 320 19,000 -480 Level Boston Center
12:57PM 41.7319 -75.3267 213° Southwest 281 323 18,000 -1,080 Descending New York Center
12:58PM 41.6675 -75.3778 211° Southwest 281 323 16,700 -1,440 Descending New York Center
12:59PM 41.5964 -75.4339 211° Southwest 281 323 15,200 -1,500 Descending New York Center
01:00PM 41.5319 -75.4847 211° Southwest 275 316 13,800 -1,380 Descending New York Center
01:01PM 41.4697 -75.5358 212° Southwest 269 310 12,500 -900 Descending New York Center
01:02PM 41.4117 -75.5786 209° Southwest 274 315 12,000 -300 Descending New York Center
01:03PM 41.3469 -75.6319 212° Southwest 279 321 12,000  Level New York Center
01:04PM 41.2825 -75.6797 209° Southwest 279 321 12,000  Level New York Center
01:05PM 41.2000 -75.6628 171° South 268 308 12,000  Level New York Center
01:06PM 41.1236 -75.6408 168° South 282 325 12,000  Level New York Center
01:07PM 41.0539 -75.6192 167° South 282 325 12,000  Level New York Center
01:08PM 40.9756 -75.5944 167° South 287 330 12,000  Level New York Center
01:09PM 40.8975 -75.5697 167° South 293 337 12,000  Level New York Center
01:10PM 40.8131 -75.5444 167° South 293 337 12,000  Level New York Center
01:11PM 40.7492 -75.5236 166° South 293 337 12,000  Level New York Center
01:12PM 40.6628 -75.4958 166° South 293 337 12,000  Level New York Center
01:13PM 40.5844 -75.4739 168° South 293 337 12,000 -540 Level New York Center
01:14PM 40.5083 -75.4525 168° South 293 337 11,000 -1,020 Descending New York Center
01:15PM 40.4283 -75.4169 161° South 293 337 10,000 -900 Descending New York Center
01:16PM 40.3719 -75.3722 149° Southeast 281 323 9,200 -1,440 Descending New York Center
01:17PM 40.3069 -75.3244 151° Southeast 267 307 7,200 -1,620 Descending New York Center
01:18PM 40.2336 -75.2789 155° Southeast 262 302 6,000 -600 Descending New York Center
01:19PM 40.1622 -75.2389 157° South 276 318 6,000  Level New York Center
01:20PM 40.1114 -75.2083 155° Southeast 249 287 6,000  Level New York Center
01:21PM 40.0586 -75.1697 151° Southeast 208 239 6,000  Level New York Center
01:22PM 40.0569 -75.0992 92° East 182 209 6,000 -240 Level New York Center
01:23PM 40.0581 -75.0125 89° East 202 232 5,600 -420 Descending New York Center
01:24PM 40.0500 -74.9167 96° East 191 220 5,000 -900 Descending Philadelphia TRACON
01:25PM 40.0000 -74.9000 166° South 172 198 3,600 -1,080 Descending Philadelphia TRACON
01:26PM 39.9667 -74.9000 180° South 186 214 3,000 -300 Descending Philadelphia TRACON
01:27PM 39.9333 -74.9500 229° Southwest 171 197 3,000  Level Philadelphia TRACON
01:28PM 39.9167 -75.0000 247° West 159 183 3,000 -180 Level Philadelphia TRACON
01:29PM 39.9167 -75.0500 270° West 156 180 2,700 -600 Descending Philadelphia TRACON
01:30PM 39.9000 -75.1000 247° West 153 176 1,900 -840 Descending Philadelphia TRACON
01:31PM 39.8833 -75.1500 247° West 140 161 1,100 -720 Descending Philadelphia TRACON
01:32PM 39.8833 -75.2000 270° West 127 146 400 -720 Descending Philadelphia TRACON